sensor_id;sensor_type;location;lat;lon;timestamp;temperature;humidity
13652;DHT22;6899;51.546;6.912;2023-05-19T00:02:02;8.30;99.90
13652;DHT22;6899;51.546;6.912;2023-05-19T00:04:30;8.30;99.90
13652;DHT22;6899;51.546;6.912;2023-05-19T00:06:58;8.20;99.90
13652;DHT22;6899;51.546;6.912;2023-05-19T00:09:26;8.20;99.90
13652;DHT22;6899;51.546;6.912;2023-05-19T00:12:02;8.00;99.90
13652;DHT22;6899;51.546;6.912;2023-05-19T00:14:29;8.10;99.90
13652;DHT22;6899;51.546;6.912;2023-05-19T00:16:56;8.20;99.90
13652;DHT22;6899;51.546;6.912;2023-05-19T00:19:24;8.10;99.90
13652;DHT22;6899;51.546;6.912;2023-05-19T00:21:56;8.10;99.90
13652;DHT22;6899;51.546;6.912;2023-05-19T00:24:23;8.10;99.90
13652;DHT22;6899;51.546;6.912;2023-05-19T00:26:50;8.10;99.90
13652;DHT22;6899;51.546;6.912;2023-05-19T00:29:16;8.00;99.90
13652;DHT22;6899;51.546;6.912;2023-05-19T00:31:43;8.10;99.90
13652;DHT22;6899;51.546;6.912;2023-05-19T00:34:13;8.00;99.90
13652;DHT22;6899;51.546;6.912;2023-05-19T00:36:41;8.00;99.90
13652;DHT22;6899;51.546;6.912;2023-05-19T00:39:11;8.00;99.90
13652;DHT22;6899;51.546;6.912;2023-05-19T00:41:41;8.00;99.90
13652;DHT22;6899;51.546;6.912;2023-05-19T00:44:07;7.90;99.90
13652;DHT22;6899;51.546;6.912;2023-05-19T00:46:34;7.90;99.90
13652;DHT22;6899;51.546;6.912;2023-05-19T00:49:02;7.70;99.90
13652;DHT22;6899;51.546;6.912;2023-05-19T00:51:29;7.70;99.90
13652;DHT22;6899;51.546;6.912;2023-05-19T00:53:58;7.60;99.90
13652;DHT22;6899;51.546;6.912;2023-05-19T00:56:24;7.60;99.90
13652;DHT22;6899;51.546;6.912;2023-05-19T00:58:52;7.50;99.90
13652;DHT22;6899;51.546;6.912;2023-05-19T01:01:20;7.40;99.90
13652;DHT22;6899;51.546;6.912;2023-05-19T01:03:47;7.40;99.90
13652;DHT22;6899;51.546;6.912;2023-05-19T01:06:14;7.20;99.90
13652;DHT22;6899;51.546;6.912;2023-05-19T01:08:43;7.20;99.90
13652;DHT22;6899;51.546;6.912;2023-05-19T01:11:12;7.20;99.90
13652;DHT22;6899;51.546;6.912;2023-05-19T01:13:39;7.30;99.90
13652;DHT22;6899;51.546;6.912;2023-05-19T01:16:10;7.30;99.90
13652;DHT22;6899;51.546;6.912;2023-05-19T01:18:52;7.30;99.90
13652;DHT22;6899;51.546;6.912;2023-05-19T01:21:46;7.20;99.90
13652;DHT22;6899;51.546;6.912;2023-05-19T01:24:30;7.20;99.90
13652;DHT22;6899;51.546;6.912;2023-05-19T01:27:21;7.10;99.90
13652;DHT22;6899;51.546;6.912;2023-05-19T01:30:12;7.00;99.90
13652;DHT22;6899;51.546;6.912;2023-05-19T01:32:44;7.00;99.90
13652;DHT22;6899;51.546;6.912;2023-05-19T01:35:14;7.00;99.90
13652;DHT22;6899;51.546;6.912;2023-05-19T01:37:42;7.00;99.90
13652;DHT22;6899;51.546;6.912;2023-05-19T01:40:11;7.00;99.90
13652;DHT22;6899;51.546;6.912;2023-05-19T01:42:39;7.00;99.90
13652;DHT22;6899;51.546;6.912;2023-05-19T01:45:07;6.90;99.90
13652;DHT22;6899;51.546;6.912;2023-05-19T01:47:39;6.80;99.90
13652;DHT22;6899;51.546;6.912;2023-05-19T01:50:07;6.60;99.90
13652;DHT22;6899;51.546;6.912;2023-05-19T01:52:35;6.60;99.90
13652;DHT22;6899;51.546;6.912;2023-05-19T01:55:01;6.50;99.90
13652;DHT22;6899;51.546;6.912;2023-05-19T01:57:34;6.60;99.90
13652;DHT22;6899;51.546;6.912;2023-05-19T02:00:09;6.50;99.90
13652;DHT22;6899;51.546;6.912;2023-05-19T02:02:45;6.60;99.90
13652;DHT22;6899;51.546;6.912;2023-05-19T02:05:21;6.50;99.90
13652;DHT22;6899;51.546;6.912;2023-05-19T02:07:58;6.50;99.90
13652;DHT22;6899;51.546;6.912;2023-05-19T02:10:30;6.50;99.90
13652;DHT22;6899;51.546;6.912;2023-05-19T02:13:00;6.40;99.90
13652;DHT22;6899;51.546;6.912;2023-05-19T02:15:40;6.30;99.90
13652;DHT22;6899;51.546;6.912;2023-05-19T02:18:10;6.20;99.90
13652;DHT22;6899;51.546;6.912;2023-05-19T02:20:37;6.10;99.90
13652;DHT22;6899;51.546;6.912;2023-05-19T02:23:04;5.80;99.90
13652;DHT22;6899;51.546;6.912;2023-05-19T02:25:40;5.60;99.90
13652;DHT22;6899;51.546;6.912;2023-05-19T02:28:07;5.50;99.90
13652;DHT22;6899;51.546;6.912;2023-05-19T02:30:34;5.40;99.90
13652;DHT22;6899;51.546;6.912;2023-05-19T02:33:00;5.60;99.90
13652;DHT22;6899;51.546;6.912;2023-05-19T02:35:28;5.80;99.90
13652;DHT22;6899;51.546;6.912;2023-05-19T02:37:55;5.70;99.90
13652;DHT22;6899;51.546;6.912;2023-05-19T02:40:22;5.70;99.90
13652;DHT22;6899;51.546;6.912;2023-05-19T02:42:54;5.70;99.90
13652;DHT22;6899;51.546;6.912;2023-05-19T02:45:21;5.50;99.90
13652;DHT22;6899;51.546;6.912;2023-05-19T02:47:48;5.50;99.90
13652;DHT22;6899;51.546;6.912;2023-05-19T02:50:15;5.40;99.90
13652;DHT22;6899;51.546;6.912;2023-05-19T02:52:43;5.30;99.90
13652;DHT22;6899;51.546;6.912;2023-05-19T02:55:09;5.40;99.90
13652;DHT22;6899;51.546;6.912;2023-05-19T02:57:41;5.50;99.90
13652;DHT22;6899;51.546;6.912;2023-05-19T03:00:08;5.60;99.90
13652;DHT22;6899;51.546;6.912;2023-05-19T03:02:35;5.80;99.90
13652;DHT22;6899;51.546;6.912;2023-05-19T03:05:02;5.90;99.90
13652;DHT22;6899;51.546;6.912;2023-05-19T03:07:29;6.00;99.90
13652;DHT22;6899;51.546;6.912;2023-05-19T03:09:57;6.00;99.90
13652;DHT22;6899;51.546;6.912;2023-05-19T03:12:24;6.00;99.90
13652;DHT22;6899;51.546;6.912;2023-05-19T03:14:51;6.10;99.90
13652;DHT22;6899;51.546;6.912;2023-05-19T03:17:18;6.10;99.90
13652;DHT22;6899;51.546;6.912;2023-05-19T03:19:45;6.20;99.90
13652;DHT22;6899;51.546;6.912;2023-05-19T03:22:11;6.20;99.90
13652;DHT22;6899;51.546;6.912;2023-05-19T03:24:38;6.10;99.90
13652;DHT22;6899;51.546;6.912;2023-05-19T03:27:06;6.10;99.90
13652;DHT22;6899;51.546;6.912;2023-05-19T03:29:33;6.00;99.90
13652;DHT22;6899;51.546;6.912;2023-05-19T03:32:01;6.00;99.90
13652;DHT22;6899;51.546;6.912;2023-05-19T03:34:28;6.00;99.90
13652;DHT22;6899;51.546;6.912;2023-05-19T03:36:57;5.90;99.90
13652;DHT22;6899;51.546;6.912;2023-05-19T03:39:23;5.80;99.90
13652;DHT22;6899;51.546;6.912;2023-05-19T03:41:50;5.80;99.90
13652;DHT22;6899;51.546;6.912;2023-05-19T03:44:18;5.90;99.90
13652;DHT22;6899;51.546;6.912;2023-05-19T03:46:45;6.00;99.90
13652;DHT22;6899;51.546;6.912;2023-05-19T03:49:12;6.10;99.90
13652;DHT22;6899;51.546;6.912;2023-05-19T03:51:39;6.10;99.90
13652;DHT22;6899;51.546;6.912;2023-05-19T03:54:07;6.20;99.90
13652;DHT22;6899;51.546;6.912;2023-05-19T03:56:38;6.20;99.90
13652;DHT22;6899;51.546;6.912;2023-05-19T03:59:05;6.20;99.90
13652;DHT22;6899;51.546;6.912;2023-05-19T04:01:33;6.20;99.90
13652;DHT22;6899;51.546;6.912;2023-05-19T04:04:03;6.20;99.90
13652;DHT22;6899;51.546;6.912;2023-05-19T04:06:30;6.30;99.90
13652;DHT22;6899;51.546;6.912;2023-05-19T04:08:58;6.40;99.90
13652;DHT22;6899;51.546;6.912;2023-05-19T04:11:27;6.50;99.90
13652;DHT22;6899;51.546;6.912;2023-05-19T04:13:54;6.60;99.90
13652;DHT22;6899;51.546;6.912;2023-05-19T04:16:21;6.50;99.90
13652;DHT22;6899;51.546;6.912;2023-05-19T04:18:49;6.40;99.90
13652;DHT22;6899;51.546;6.912;2023-05-19T04:21:16;6.30;99.90
13652;DHT22;6899;51.546;6.912;2023-05-19T04:23:43;6.30;99.90
13652;DHT22;6899;51.546;6.912;2023-05-19T04:26:13;6.40;99.90
13652;DHT22;6899;51.546;6.912;2023-05-19T04:28:40;6.60;99.90
13652;DHT22;6899;51.546;6.912;2023-05-19T04:31:09;6.70;99.90
13652;DHT22;6899;51.546;6.912;2023-05-19T04:33:37;6.70;99.90
13652;DHT22;6899;51.546;6.912;2023-05-19T04:36:06;6.80;99.90
13652;DHT22;6899;51.546;6.912;2023-05-19T04:38:35;6.90;99.90
13652;DHT22;6899;51.546;6.912;2023-05-19T04:41:04;6.80;99.90
13652;DHT22;6899;51.546;6.912;2023-05-19T04:43:34;6.80;99.90
13652;DHT22;6899;51.546;6.912;2023-05-19T04:46:01;6.90;99.90
13652;DHT22;6899;51.546;6.912;2023-05-19T04:48:30;6.90;99.90
13652;DHT22;6899;51.546;6.912;2023-05-19T04:50:57;6.80;99.90
13652;DHT22;6899;51.546;6.912;2023-05-19T04:53:27;6.90;99.90
13652;DHT22;6899;51.546;6.912;2023-05-19T04:55:54;7.00;99.90
13652;DHT22;6899;51.546;6.912;2023-05-19T04:58:21;7.10;99.90
13652;DHT22;6899;51.546;6.912;2023-05-19T05:00:50;7.10;99.90
13652;DHT22;6899;51.546;6.912;2023-05-19T05:03:17;7.20;99.90
13652;DHT22;6899;51.546;6.912;2023-05-19T05:05:47;7.20;99.90
13652;DHT22;6899;51.546;6.912;2023-05-19T05:08:14;7.30;99.90
13652;DHT22;6899;51.546;6.912;2023-05-19T05:10:49;7.60;99.90
13652;DHT22;6899;51.546;6.912;2023-05-19T05:13:17;7.70;99.90
13652;DHT22;6899;51.546;6.912;2023-05-19T05:15:45;7.90;99.90
13652;DHT22;6899;51.546;6.912;2023-05-19T05:18:12;8.00;99.90
13652;DHT22;6899;51.546;6.912;2023-05-19T05:20:40;8.20;99.90
13652;DHT22;6899;51.546;6.912;2023-05-19T05:23:20;8.80;99.90
13652;DHT22;6899;51.546;6.912;2023-05-19T05:25:49;10.00;99.90
13652;DHT22;6899;51.546;6.912;2023-05-19T05:28:16;11.20;99.90
13652;DHT22;6899;51.546;6.912;2023-05-19T05:30:43;12.50;99.90
13652;DHT22;6899;51.546;6.912;2023-05-19T05:33:10;13.90;99.90
13652;DHT22;6899;51.546;6.912;2023-05-19T05:35:37;15.20;99.90
13652;DHT22;6899;51.546;6.912;2023-05-19T05:38:13;15.90;99.90
13652;DHT22;6899;51.546;6.912;2023-05-19T05:40:50;16.30;99.90
13652;DHT22;6899;51.546;6.912;2023-05-19T05:43:25;16.80;99.80
13652;DHT22;6899;51.546;6.912;2023-05-19T05:45:52;17.40;97.10
13652;DHT22;6899;51.546;6.912;2023-05-19T05:48:19;17.30;90.20
13652;DHT22;6899;51.546;6.912;2023-05-19T05:50:47;17.80;99.90
13652;DHT22;6899;51.546;6.912;2023-05-19T05:53:17;18.50;95.40
13652;DHT22;6899;51.546;6.912;2023-05-19T05:55:45;18.70;82.50
13652;DHT22;6899;51.546;6.912;2023-05-19T05:58:13;18.60;75.00
13652;DHT22;6899;51.546;6.912;2023-05-19T06:00:41;18.40;70.70
13652;DHT22;6899;51.546;6.912;2023-05-19T06:03:08;18.30;77.10
13652;DHT22;6899;51.546;6.912;2023-05-19T06:05:57;19.00;88.40
13652;DHT22;6899;51.546;6.912;2023-05-19T06:08:24;19.50;66.80
13652;DHT22;6899;51.546;6.912;2023-05-19T06:10:51;19.40;76.30
13652;DHT22;6899;51.546;6.912;2023-05-19T06:13:19;19.30;71.30
13652;DHT22;6899;51.546;6.912;2023-05-19T06:15:48;19.20;68.00
13652;DHT22;6899;51.546;6.912;2023-05-19T06:18:15;19.50;67.50
13652;DHT22;6899;51.546;6.912;2023-05-19T06:20:42;19.60;72.50
13652;DHT22;6899;51.546;6.912;2023-05-19T06:23:20;20.40;69.40
13652;DHT22;6899;51.546;6.912;2023-05-19T06:25:57;20.80;63.10
13652;DHT22;6899;51.546;6.912;2023-05-19T06:28:28;20.80;59.90
13652;DHT22;6899;51.546;6.912;2023-05-19T06:30:54;19.80;58.70
13652;DHT22;6899;51.546;6.912;2023-05-19T06:33:21;19.30;60.00
13652;DHT22;6899;51.546;6.912;2023-05-19T06:35:48;19.90;71.90
13652;DHT22;6899;51.546;6.912;2023-05-19T06:38:15;20.50;64.10
13652;DHT22;6899;51.546;6.912;2023-05-19T06:40:42;21.10;63.90
13652;DHT22;6899;51.546;6.912;2023-05-19T06:43:11;21.60;66.20
13652;DHT22;6899;51.546;6.912;2023-05-19T06:45:42;22.20;60.30
13652;DHT22;6899;51.546;6.912;2023-05-19T06:48:09;22.00;55.50
13652;DHT22;6899;51.546;6.912;2023-05-19T06:50:36;20.70;52.90
13652;DHT22;6899;51.546;6.912;2023-05-19T06:53:03;20.40;59.50
13652;DHT22;6899;51.546;6.912;2023-05-19T06:55:33;20.90;58.30
13652;DHT22;6899;51.546;6.912;2023-05-19T06:58:02;21.40;56.30
13652;DHT22;6899;51.546;6.912;2023-05-19T07:00:29;20.30;53.30
13652;DHT22;6899;51.546;6.912;2023-05-19T07:02:58;20.40;54.70
13652;DHT22;6899;51.546;6.912;2023-05-19T07:05:24;20.80;64.20
13652;DHT22;6899;51.546;6.912;2023-05-19T07:07:51;21.10;56.60
13652;DHT22;6899;51.546;6.912;2023-05-19T07:10:18;21.90;63.30
13652;DHT22;6899;51.546;6.912;2023-05-19T07:12:45;21.90;53.60
13652;DHT22;6899;51.546;6.912;2023-05-19T07:15:15;21.90;52.50
13652;DHT22;6899;51.546;6.912;2023-05-19T07:17:42;22.20;51.40
13652;DHT22;6899;51.546;6.912;2023-05-19T07:20:11;22.20;52.60
13652;DHT22;6899;51.546;6.912;2023-05-19T07:22:37;22.60;53.50
13652;DHT22;6899;51.546;6.912;2023-05-19T07:25:05;23.00;54.00
13652;DHT22;6899;51.546;6.912;2023-05-19T07:27:32;23.60;49.80
13652;DHT22;6899;51.546;6.912;2023-05-19T07:29:59;23.90;51.30
13652;DHT22;6899;51.546;6.912;2023-05-19T07:32:26;23.80;49.90
13652;DHT22;6899;51.546;6.912;2023-05-19T07:34:53;23.90;52.10
13652;DHT22;6899;51.546;6.912;2023-05-19T07:37:21;24.00;47.80
13652;DHT22;6899;51.546;6.912;2023-05-19T07:39:48;23.80;45.70
13652;DHT22;6899;51.546;6.912;2023-05-19T07:42:14;23.10;45.20
13652;DHT22;6899;51.546;6.912;2023-05-19T07:44:41;21.70;46.80
13652;DHT22;6899;51.546;6.912;2023-05-19T07:47:08;21.20;51.50
13652;DHT22;6899;51.546;6.912;2023-05-19T07:49:37;21.40;51.90
13652;DHT22;6899;51.546;6.912;2023-05-19T07:52:04;21.80;49.90
13652;DHT22;6899;51.546;6.912;2023-05-19T07:54:33;21.20;49.70
13652;DHT22;6899;51.546;6.912;2023-05-19T07:56:59;21.60;53.40
13652;DHT22;6899;51.546;6.912;2023-05-19T07:59:27;21.40;49.70
13652;DHT22;6899;51.546;6.912;2023-05-19T08:01:53;21.30;52.70
13652;DHT22;6899;51.546;6.912;2023-05-19T08:04:20;22.00;53.50
13652;DHT22;6899;51.546;6.912;2023-05-19T08:06:47;22.50;51.90
13652;DHT22;6899;51.546;6.912;2023-05-19T08:09:14;23.30;50.40
13652;DHT22;6899;51.546;6.912;2023-05-19T08:11:42;22.90;45.90
13652;DHT22;6899;51.546;6.912;2023-05-19T08:14:09;22.70;47.70
13652;DHT22;6899;51.546;6.912;2023-05-19T08:16:36;22.80;48.90
13652;DHT22;6899;51.546;6.912;2023-05-19T08:19:02;22.70;47.10
13652;DHT22;6899;51.546;6.912;2023-05-19T08:21:31;22.50;47.70
13652;DHT22;6899;51.546;6.912;2023-05-19T08:23:59;22.00;47.80
13652;DHT22;6899;51.546;6.912;2023-05-19T08:26:28;22.00;50.50
13652;DHT22;6899;51.546;6.912;2023-05-19T08:28:56;20.80;47.30
13652;DHT22;6899;51.546;6.912;2023-05-19T08:31:23;20.70;49.10
13652;DHT22;6899;51.546;6.912;2023-05-19T08:33:50;20.80;50.70
13652;DHT22;6899;51.546;6.912;2023-05-19T08:36:17;21.50;49.30
13652;DHT22;6899;51.546;6.912;2023-05-19T08:38:49;21.50;47.60
13652;DHT22;6899;51.546;6.912;2023-05-19T08:41:16;21.80;48.70
13652;DHT22;6899;51.546;6.912;2023-05-19T08:43:43;21.60;49.50
13652;DHT22;6899;51.546;6.912;2023-05-19T08:46:12;22.10;50.60
13652;DHT22;6899;51.546;6.912;2023-05-19T08:48:42;22.60;46.60
13652;DHT22;6899;51.546;6.912;2023-05-19T08:51:19;23.00;48.50
13652;DHT22;6899;51.546;6.912;2023-05-19T08:53:52;23.40;46.10
13652;DHT22;6899;51.546;6.912;2023-05-19T08:56:22;23.20;46.50
13652;DHT22;6899;51.546;6.912;2023-05-19T08:58:54;23.00;47.50
13652;DHT22;6899;51.546;6.912;2023-05-19T09:01:25;23.30;46.50
13652;DHT22;6899;51.546;6.912;2023-05-19T09:03:53;23.80;46.20
13652;DHT22;6899;51.546;6.912;2023-05-19T09:06:24;23.10;44.10
13652;DHT22;6899;51.546;6.912;2023-05-19T09:08:56;22.80;43.80
13652;DHT22;6899;51.546;6.912;2023-05-19T09:11:26;23.10;44.10
13652;DHT22;6899;51.546;6.912;2023-05-19T09:13:53;23.00;44.20
13652;DHT22;6899;51.546;6.912;2023-05-19T09:16:20;22.70;44.80
13652;DHT22;6899;51.546;6.912;2023-05-19T09:18:55;22.20;45.70
13652;DHT22;6899;51.546;6.912;2023-05-19T09:21:26;22.50;47.50
13652;DHT22;6899;51.546;6.912;2023-05-19T09:23:55;23.00;46.20
13652;DHT22;6899;51.546;6.912;2023-05-19T09:26:22;22.70;45.10
13652;DHT22;6899;51.546;6.912;2023-05-19T09:28:49;23.20;46.00
13652;DHT22;6899;51.546;6.912;2023-05-19T09:31:16;22.40;43.30
13652;DHT22;6899;51.546;6.912;2023-05-19T09:33:42;22.00;45.10
13652;DHT22;6899;51.546;6.912;2023-05-19T09:36:11;21.60;46.40
13652;DHT22;6899;51.546;6.912;2023-05-19T09:38:38;21.50;47.10
13652;DHT22;6899;51.546;6.912;2023-05-19T09:41:06;22.00;46.00
13652;DHT22;6899;51.546;6.912;2023-05-19T09:43:33;21.90;45.30
13652;DHT22;6899;51.546;6.912;2023-05-19T09:46:03;21.60;45.80
13652;DHT22;6899;51.546;6.912;2023-05-19T09:48:30;21.80;46.80
13652;DHT22;6899;51.546;6.912;2023-05-19T09:50:58;21.70;46.20
13652;DHT22;6899;51.546;6.912;2023-05-19T09:53:28;21.70;47.50
13652;DHT22;6899;51.546;6.912;2023-05-19T09:55:56;21.90;47.60
13652;DHT22;6899;51.546;6.912;2023-05-19T09:58:24;22.50;46.70
13652;DHT22;6899;51.546;6.912;2023-05-19T10:00:52;22.60;45.20
13652;DHT22;6899;51.546;6.912;2023-05-19T10:03:20;22.30;45.40
13652;DHT22;6899;51.546;6.912;2023-05-19T10:05:49;22.40;46.70
13652;DHT22;6899;51.546;6.912;2023-05-19T10:08:16;22.50;47.80
13652;DHT22;6899;51.546;6.912;2023-05-19T10:10:48;22.70;47.50
13652;DHT22;6899;51.546;6.912;2023-05-19T10:13:27;23.50;46.90
13652;DHT22;6899;51.546;6.912;2023-05-19T10:15:54;23.40;46.00
13652;DHT22;6899;51.546;6.912;2023-05-19T10:18:24;23.30;44.10
13652;DHT22;6899;51.546;6.912;2023-05-19T10:20:53;23.10;44.30
13652;DHT22;6899;51.546;6.912;2023-05-19T10:23:22;22.80;44.10
13652;DHT22;6899;51.546;6.912;2023-05-19T10:25:53;22.60;46.30
13652;DHT22;6899;51.546;6.912;2023-05-19T10:28:30;22.40;44.70
13652;DHT22;6899;51.546;6.912;2023-05-19T10:31:03;22.30;45.50
13652;DHT22;6899;51.546;6.912;2023-05-19T10:33:40;22.60;47.00
13652;DHT22;6899;51.546;6.912;2023-05-19T10:36:30;22.20;47.10
13652;DHT22;6899;51.546;6.912;2023-05-19T10:39:04;22.10;47.30
13652;DHT22;6899;51.546;6.912;2023-05-19T10:41:38;21.40;46.00
13652;DHT22;6899;51.546;6.912;2023-05-19T10:44:14;21.20;46.40
13652;DHT22;6899;51.546;6.912;2023-05-19T10:46:50;21.60;47.90
13652;DHT22;6899;51.546;6.912;2023-05-19T10:49:19;22.30;45.00
13652;DHT22;6899;51.546;6.912;2023-05-19T10:51:46;22.20;45.00
13652;DHT22;6899;51.546;6.912;2023-05-19T10:54:13;22.30;45.20
13652;DHT22;6899;51.546;6.912;2023-05-19T10:56:43;21.80;45.60
13652;DHT22;6899;51.546;6.912;2023-05-19T10:59:31;22.30;46.50
13652;DHT22;6899;51.546;6.912;2023-05-19T11:02:02;22.90;46.60
13652;DHT22;6899;51.546;6.912;2023-05-19T11:04:38;22.50;44.50
13652;DHT22;6899;51.546;6.912;2023-05-19T11:07:08;22.50;45.10
13652;DHT22;6899;51.546;6.912;2023-05-19T11:09:39;22.90;45.70
13652;DHT22;6899;51.546;6.912;2023-05-19T11:12:07;23.10;44.40
13652;DHT22;6899;51.546;6.912;2023-05-19T11:14:36;22.80;43.60
13652;DHT22;6899;51.546;6.912;2023-05-19T11:17:12;22.90;43.90
13652;DHT22;6899;51.546;6.912;2023-05-19T11:19:51;22.80;43.00
13652;DHT22;6899;51.546;6.912;2023-05-19T11:22:22;22.30;45.40
13652;DHT22;6899;51.546;6.912;2023-05-19T11:24:49;22.70;46.60
13652;DHT22;6899;51.546;6.912;2023-05-19T11:27:26;23.00;43.40
13652;DHT22;6899;51.546;6.912;2023-05-19T11:29:54;23.70;45.60
13652;DHT22;6899;51.546;6.912;2023-05-19T11:32:24;23.90;42.50
13652;DHT22;6899;51.546;6.912;2023-05-19T11:34:51;24.10;43.90
13652;DHT22;6899;51.546;6.912;2023-05-19T11:37:19;24.40;40.90
13652;DHT22;6899;51.546;6.912;2023-05-19T11:39:46;23.60;42.30
13652;DHT22;6899;51.546;6.912;2023-05-19T11:42:13;23.10;44.60
13652;DHT22;6899;51.546;6.912;2023-05-19T11:44:42;23.10;43.80
13652;DHT22;6899;51.546;6.912;2023-05-19T11:47:11;23.40;43.20
13652;DHT22;6899;51.546;6.912;2023-05-19T11:49:38;24.40;43.40
13652;DHT22;6899;51.546;6.912;2023-05-19T11:52:08;24.60;41.30
13652;DHT22;6899;51.546;6.912;2023-05-19T11:54:35;24.10;42.70
13652;DHT22;6899;51.546;6.912;2023-05-19T11:57:08;24.50;42.20
13652;DHT22;6899;51.546;6.912;2023-05-19T11:59:36;24.40;41.40
13652;DHT22;6899;51.546;6.912;2023-05-19T12:02:16;24.30;40.20
13652;DHT22;6899;51.546;6.912;2023-05-19T12:04:43;23.90;42.10
13652;DHT22;6899;51.546;6.912;2023-05-19T12:07:10;23.90;40.80
13652;DHT22;6899;51.546;6.912;2023-05-19T12:09:38;24.20;40.90
13652;DHT22;6899;51.546;6.912;2023-05-19T12:12:05;24.70;40.30
13652;DHT22;6899;51.546;6.912;2023-05-19T12:14:32;25.00;40.90
13652;DHT22;6899;51.546;6.912;2023-05-19T12:17:09;25.20;41.50
13652;DHT22;6899;51.546;6.912;2023-05-19T12:19:39;25.50;37.50
13652;DHT22;6899;51.546;6.912;2023-05-19T12:22:06;25.50;39.60
13652;DHT22;6899;51.546;6.912;2023-05-19T12:24:33;25.60;37.50
13652;DHT22;6899;51.546;6.912;2023-05-19T12:27:05;25.10;39.20
13652;DHT22;6899;51.546;6.912;2023-05-19T12:29:33;25.30;38.40
13652;DHT22;6899;51.546;6.912;2023-05-19T12:32:00;25.00;40.90
13652;DHT22;6899;51.546;6.912;2023-05-19T12:34:27;25.10;38.70
13652;DHT22;6899;51.546;6.912;2023-05-19T12:36:56;25.10;39.40
13652;DHT22;6899;51.546;6.912;2023-05-19T12:39:23;25.40;39.40
13652;DHT22;6899;51.546;6.912;2023-05-19T12:41:50;25.20;39.20
13652;DHT22;6899;51.546;6.912;2023-05-19T12:44:17;26.50;39.20
13652;DHT22;6899;51.546;6.912;2023-05-19T12:46:43;26.30;35.80
13652;DHT22;6899;51.546;6.912;2023-05-19T12:49:10;25.80;36.90
13652;DHT22;6899;51.546;6.912;2023-05-19T12:51:37;25.80;39.30
13652;DHT22;6899;51.546;6.912;2023-05-19T12:54:06;24.90;37.10
13652;DHT22;6899;51.546;6.912;2023-05-19T12:56:33;23.90;40.50
13652;DHT22;6899;51.546;6.912;2023-05-19T12:58:59;24.60;39.90
13652;DHT22;6899;51.546;6.912;2023-05-19T13:01:28;25.00;40.60
13652;DHT22;6899;51.546;6.912;2023-05-19T13:03:56;25.20;38.10
13652;DHT22;6899;51.546;6.912;2023-05-19T13:06:22;25.40;38.90
13652;DHT22;6899;51.546;6.912;2023-05-19T13:08:57;25.50;38.50
13652;DHT22;6899;51.546;6.912;2023-05-19T13:11:28;25.40;38.00
13652;DHT22;6899;51.546;6.912;2023-05-19T13:13:54;26.10;39.00
13652;DHT22;6899;51.546;6.912;2023-05-19T13:16:22;26.00;37.50
13652;DHT22;6899;51.546;6.912;2023-05-19T13:18:48;26.80;38.40
13652;DHT22;6899;51.546;6.912;2023-05-19T13:21:15;27.20;37.30
13652;DHT22;6899;51.546;6.912;2023-05-19T13:23:42;27.80;37.00
13652;DHT22;6899;51.546;6.912;2023-05-19T13:26:09;28.50;35.70
13652;DHT22;6899;51.546;6.912;2023-05-19T13:28:39;28.60;34.20
13652;DHT22;6899;51.546;6.912;2023-05-19T13:31:05;28.20;33.90
13652;DHT22;6899;51.546;6.912;2023-05-19T13:33:32;28.10;33.10
13652;DHT22;6899;51.546;6.912;2023-05-19T13:35:59;27.20;35.00
13652;DHT22;6899;51.546;6.912;2023-05-19T13:38:28;27.10;34.10
13652;DHT22;6899;51.546;6.912;2023-05-19T13:40:55;26.60;35.20
13652;DHT22;6899;51.546;6.912;2023-05-19T13:43:22;26.90;35.40
13652;DHT22;6899;51.546;6.912;2023-05-19T13:45:50;27.20;35.00
13652;DHT22;6899;51.546;6.912;2023-05-19T13:48:17;27.00;34.00
13652;DHT22;6899;51.546;6.912;2023-05-19T13:50:44;27.20;35.40
13652;DHT22;6899;51.546;6.912;2023-05-19T13:53:11;27.50;34.40
13652;DHT22;6899;51.546;6.912;2023-05-19T13:55:37;27.80;34.80
13652;DHT22;6899;51.546;6.912;2023-05-19T13:58:04;28.50;36.50
13652;DHT22;6899;51.546;6.912;2023-05-19T14:00:31;28.10;33.60
13652;DHT22;6899;51.546;6.912;2023-05-19T14:03:01;27.10;36.40
13652;DHT22;6899;51.546;6.912;2023-05-19T14:05:27;26.50;33.90
13652;DHT22;6899;51.546;6.912;2023-05-19T14:07:55;26.30;36.10
13652;DHT22;6899;51.546;6.912;2023-05-19T14:10:22;26.00;34.80
13652;DHT22;6899;51.546;6.912;2023-05-19T14:12:49;25.20;34.80
13652;DHT22;6899;51.546;6.912;2023-05-19T14:15:17;25.30;38.20
13652;DHT22;6899;51.546;6.912;2023-05-19T14:17:44;26.20;35.40
13652;DHT22;6899;51.546;6.912;2023-05-19T14:20:12;26.50;33.90
13652;DHT22;6899;51.546;6.912;2023-05-19T14:22:39;26.80;36.00
13652;DHT22;6899;51.546;6.912;2023-05-19T14:25:06;27.20;35.40
13652;DHT22;6899;51.546;6.912;2023-05-19T14:27:33;27.30;35.60
13652;DHT22;6899;51.546;6.912;2023-05-19T14:30:00;26.20;35.40
13652;DHT22;6899;51.546;6.912;2023-05-19T14:32:27;25.50;36.70
13652;DHT22;6899;51.546;6.912;2023-05-19T14:34:53;24.70;37.10
13652;DHT22;6899;51.546;6.912;2023-05-19T14:37:21;24.60;37.50
13652;DHT22;6899;51.546;6.912;2023-05-19T14:39:48;24.90;37.80
13652;DHT22;6899;51.546;6.912;2023-05-19T14:42:15;26.00;36.60
13652;DHT22;6899;51.546;6.912;2023-05-19T14:44:42;26.40;34.80
13652;DHT22;6899;51.546;6.912;2023-05-19T14:47:09;26.40;35.60
13652;DHT22;6899;51.546;6.912;2023-05-19T14:49:36;26.60;37.20
13652;DHT22;6899;51.546;6.912;2023-05-19T14:52:03;27.00;34.90
13652;DHT22;6899;51.546;6.912;2023-05-19T14:54:32;27.10;35.30
13652;DHT22;6899;51.546;6.912;2023-05-19T14:56:58;26.20;35.40
13652;DHT22;6899;51.546;6.912;2023-05-19T14:59:26;25.20;35.60
13652;DHT22;6899;51.546;6.912;2023-05-19T15:01:53;24.60;36.60
13652;DHT22;6899;51.546;6.912;2023-05-19T15:04:23;24.50;38.80
13652;DHT22;6899;51.546;6.912;2023-05-19T15:06:50;25.60;38.80
13652;DHT22;6899;51.546;6.912;2023-05-19T15:09:17;26.40;36.40
13652;DHT22;6899;51.546;6.912;2023-05-19T15:11:45;26.80;34.40
13652;DHT22;6899;51.546;6.912;2023-05-19T15:14:11;26.50;35.00
13652;DHT22;6899;51.546;6.912;2023-05-19T15:16:38;25.90;37.50
13652;DHT22;6899;51.546;6.912;2023-05-19T15:19:05;25.20;37.30
13652;DHT22;6899;51.546;6.912;2023-05-19T15:21:32;25.10;37.50
13652;DHT22;6899;51.546;6.912;2023-05-19T15:23:58;25.70;36.00
13652;DHT22;6899;51.546;6.912;2023-05-19T15:26:25;26.20;35.70
13652;DHT22;6899;51.546;6.912;2023-05-19T15:28:56;26.20;34.80
13652;DHT22;6899;51.546;6.912;2023-05-19T15:31:23;26.00;35.10
13652;DHT22;6899;51.546;6.912;2023-05-19T15:33:50;26.40;35.90
13652;DHT22;6899;51.546;6.912;2023-05-19T15:36:17;26.90;35.30
13652;DHT22;6899;51.546;6.912;2023-05-19T15:38:43;27.20;34.90
13652;DHT22;6899;51.546;6.912;2023-05-19T15:41:10;26.80;35.50
13652;DHT22;6899;51.546;6.912;2023-05-19T15:43:37;26.70;34.80
13652;DHT22;6899;51.546;6.912;2023-05-19T15:46:06;26.70;35.40
13652;DHT22;6899;51.546;6.912;2023-05-19T15:48:33;26.60;35.10
13652;DHT22;6899;51.546;6.912;2023-05-19T15:50:59;25.80;34.80
13652;DHT22;6899;51.546;6.912;2023-05-19T15:53:26;25.70;35.30
13652;DHT22;6899;51.546;6.912;2023-05-19T15:55:53;25.50;35.90
13652;DHT22;6899;51.546;6.912;2023-05-19T15:58:21;25.50;35.80
13652;DHT22;6899;51.546;6.912;2023-05-19T16:00:48;26.10;36.90
13652;DHT22;6899;51.546;6.912;2023-05-19T16:03:16;26.50;36.00